createdAt,value
2022-08-21T00:01:59.059Z,16.90
2022-08-21T00:04:31.872Z,16.90
2022-08-21T00:07:00.846Z,16.90
2022-08-21T00:09:41.381Z,16.90
2022-08-21T00:12:09.102Z,16.80
2022-08-21T00:14:43.981Z,16.80
2022-08-21T00:17:23.943Z,16.80
2022-08-21T00:20:00.319Z,16.70
2022-08-21T00:22:30.803Z,16.70
2022-08-21T00:25:03.330Z,16.70
2022-08-21T00:27:33.503Z,16.70
2022-08-21T00:30:00.621Z,16.70
2022-08-21T00:32:31.199Z,16.70
2022-08-21T00:34:59.101Z,16.60
2022-08-21T00:37:30.590Z,16.60
2022-08-21T00:40:11.058Z,16.60
2022-08-21T00:42:38.338Z,16.60
2022-08-21T00:45:59.466Z,16.50
2022-08-21T00:48:40.061Z,16.50
2022-08-21T00:51:38.389Z,16.50
2022-08-21T00:54:18.175Z,16.40
2022-08-21T00:56:51.394Z,16.40
2022-08-21T00:59:22.539Z,16.40
2022-08-21T01:01:50.654Z,16.40
2022-08-21T01:04:18.166Z,16.40
2022-08-21T01:06:48.533Z,16.40
2022-08-21T01:09:15.762Z,16.30
2022-08-21T01:11:44.343Z,16.30
2022-08-21T01:14:14.102Z,16.30
2022-08-21T01:16:43.146Z,16.30
2022-08-21T01:19:23.485Z,16.30
2022-08-21T01:22:01.230Z,16.20
2022-08-21T01:24:34.427Z,16.20
2022-08-21T01:27:02.463Z,16.20
2022-08-21T01:29:52.202Z,16.20
2022-08-21T01:35:16.935Z,16.10
2022-08-21T01:37:50.147Z,16.10
2022-08-21T01:40:22.154Z,16.10
2022-08-21T01:42:52.260Z,16.10
2022-08-21T01:45:19.886Z,16.10
2022-08-21T01:47:48.120Z,16.10
2022-08-21T01:50:19.563Z,16.10
2022-08-21T01:52:46.963Z,16.10
2022-08-21T01:55:17.712Z,16.00
2022-08-21T01:57:58.431Z,16.10
2022-08-21T02:00:29.510Z,16.00
2022-08-21T02:03:00.942Z,16.00
2022-08-21T02:05:30.416Z,16.00
2022-08-21T02:08:05.153Z,16.00
2022-08-21T02:10:35.847Z,16.00
2022-08-21T02:13:03.756Z,16.00
2022-08-21T02:15:34.948Z,16.00
2022-08-21T02:18:03.038Z,16.00
2022-08-21T02:20:39.931Z,16.00
2022-08-21T02:23:14.469Z,16.00
2022-08-21T02:25:45.248Z,15.90
2022-08-21T02:28:16.500Z,16.00
2022-08-21T02:30:49.640Z,16.00
2022-08-21T02:33:20.624Z,16.00
2022-08-21T02:35:49.348Z,16.00
2022-08-21T02:38:20.254Z,16.00
2022-08-21T02:40:51.165Z,16.00
2022-08-21T02:43:21.865Z,16.10
2022-08-21T02:45:55.609Z,16.00
2022-08-21T02:48:28.709Z,16.10
2022-08-21T02:51:01.598Z,16.10
2022-08-21T02:53:30.974Z,16.10
2022-08-21T02:56:01.243Z,16.10
2022-08-21T02:58:32.805Z,16.00
2022-08-21T03:01:03.497Z,16.00
2022-08-21T03:03:31.673Z,16.00
2022-08-21T03:05:59.715Z,16.00
2022-08-21T03:08:29.285Z,15.90
2022-08-21T03:12:06.065Z,15.90
2022-08-21T03:14:36.716Z,15.90
2022-08-21T03:17:08.478Z,15.90
2022-08-21T03:19:38.280Z,15.80
2022-08-21T03:22:08.202Z,15.80
2022-08-21T03:24:35.654Z,15.70
2022-08-21T03:27:09.236Z,15.70
2022-08-21T03:29:42.318Z,15.70
2022-08-21T03:32:12.623Z,15.70
2022-08-21T03:34:40.680Z,15.60
2022-08-21T03:37:11.540Z,15.60
2022-08-21T03:39:38.875Z,15.60
2022-08-21T03:42:11.577Z,15.50
2022-08-21T03:44:40.927Z,15.60
2022-08-21T03:47:08.377Z,15.50
2022-08-21T03:49:38.621Z,15.50
2022-08-21T03:52:21.781Z,15.50
2022-08-21T03:54:51.850Z,15.50
2022-08-21T03:57:30.351Z,15.50
2022-08-21T04:00:01.669Z,15.50
2022-08-21T04:02:37.246Z,15.50
2022-08-21T04:05:05.528Z,15.50
2022-08-21T04:07:35.377Z,15.50
2022-08-21T04:10:05.918Z,15.50
2022-08-21T04:12:37.259Z,15.40
2022-08-21T04:15:07.349Z,15.50
2022-08-21T04:17:36.127Z,15.40
2022-08-21T04:20:11.689Z,15.40
2022-08-21T04:22:41.931Z,15.30
2022-08-21T04:25:09.538Z,15.30
2022-08-21T04:27:36.966Z,15.30
2022-08-21T04:30:19.275Z,15.30
2022-08-21T04:32:49.918Z,15.30
2022-08-21T04:35:35.176Z,15.30
2022-08-21T04:38:09.534Z,15.20
2022-08-21T04:40:39.913Z,15.20
2022-08-21T04:43:09.731Z,15.20
2022-08-21T04:45:43.320Z,15.20
2022-08-21T04:48:18.516Z,15.20
2022-08-21T04:51:10.675Z,15.20
2022-08-21T04:53:57.262Z,15.20
2022-08-21T04:56:37.438Z,15.30
2022-08-21T04:59:11.757Z,15.20
2022-08-21T05:01:42.090Z,15.20
2022-08-21T05:04:14.198Z,15.20
2022-08-21T05:06:46.567Z,15.20
2022-08-21T05:09:16.704Z,15.20
2022-08-21T05:11:46.784Z,15.20
2022-08-21T05:14:15.416Z,15.10
2022-08-21T05:16:48.197Z,15.10
2022-08-21T05:19:19.414Z,15.20
2022-08-21T05:21:59.052Z,15.20
2022-08-21T05:24:32.568Z,15.30
2022-08-21T05:27:03.786Z,15.30
2022-08-21T05:29:36.599Z,15.40
2022-08-21T05:32:13.053Z,15.50
2022-08-21T05:34:48.271Z,15.60
2022-08-21T05:37:18.947Z,15.60
2022-08-21T05:40:04.820Z,15.70
2022-08-21T05:42:37.472Z,15.80
2022-08-21T05:45:08.550Z,15.80
2022-08-21T05:47:51.211Z,15.90
2022-08-21T05:50:22.445Z,15.90
2022-08-21T05:52:56.689Z,16.00
2022-08-21T05:56:02.375Z,16.00
2022-08-21T05:58:41.983Z,16.10
2022-08-21T06:01:19.196Z,16.20
2022-08-21T06:03:52.946Z,16.20
2022-08-21T06:06:32.068Z,16.20
2022-08-21T06:09:07.618Z,16.30
2022-08-21T06:11:42.694Z,16.30
2022-08-21T06:14:18.900Z,16.30
2022-08-21T06:16:51.873Z,16.30
2022-08-21T06:19:32.105Z,16.30
2022-08-21T06:21:59.786Z,16.30
2022-08-21T06:24:32.766Z,16.30
2022-08-21T06:27:10.995Z,16.40
2022-08-21T06:29:44.203Z,16.40
2022-08-21T06:32:19.471Z,16.50
2022-08-21T06:34:48.330Z,16.60
2022-08-21T06:37:18.607Z,16.70
2022-08-21T06:39:45.897Z,16.80
2022-08-21T06:42:16.894Z,16.90
2022-08-21T06:44:45.397Z,17.00
2022-08-21T06:47:12.642Z,17.10
2022-08-21T06:49:40.155Z,17.20
2022-08-21T06:52:11.741Z,17.20
2022-08-21T06:54:39.041Z,17.30
2022-08-21T06:57:06.420Z,17.40
2022-08-21T06:59:33.556Z,17.50
2022-08-21T07:02:01.044Z,17.50
2022-08-21T07:04:28.279Z,17.60
2022-08-21T07:06:58.438Z,17.70
2022-08-21T07:09:26.300Z,17.70
2022-08-21T07:11:56.676Z,17.80
2022-08-21T07:14:26.790Z,17.90
2022-08-21T07:16:57.451Z,18.00
2022-08-21T07:19:35.552Z,18.00
2022-08-21T07:22:09.073Z,18.10
2022-08-21T07:24:36.754Z,18.20
2022-08-21T07:27:17.401Z,18.30
2022-08-21T07:29:44.888Z,18.30
2022-08-21T07:32:13.237Z,18.40
2022-08-21T07:34:40.565Z,18.50
2022-08-21T07:37:10.021Z,18.60
2022-08-21T07:39:37.903Z,18.60
2022-08-21T07:42:08.529Z,18.70
2022-08-21T07:44:39.826Z,18.70
2022-08-21T07:47:07.365Z,18.70
2022-08-21T07:49:34.616Z,18.70
2022-08-21T07:52:02.462Z,18.80
2022-08-21T07:54:31.068Z,18.90
2022-08-21T07:57:01.146Z,19.00
2022-08-21T07:59:28.804Z,19.00
2022-08-21T08:01:57.750Z,19.00
2022-08-21T08:04:26.566Z,19.00
2022-08-21T08:06:56.538Z,19.10
2022-08-21T08:09:23.735Z,19.10
2022-08-21T08:11:50.786Z,19.10
2022-08-21T08:14:18.638Z,19.20
2022-08-21T08:16:45.700Z,19.20
2022-08-21T08:19:12.852Z,19.30
2022-08-21T08:21:40.204Z,19.30
2022-08-21T08:24:19.551Z,19.40
2022-08-21T08:26:53.610Z,19.50
2022-08-21T08:29:23.369Z,19.50
2022-08-21T08:31:50.771Z,19.50
2022-08-21T08:34:25.123Z,19.50
2022-08-21T08:36:53.688Z,19.70
2022-08-21T08:39:27.066Z,19.70
2022-08-21T08:42:32.970Z,19.60
2022-08-21T08:45:09.133Z,19.70
2022-08-21T08:47:38.692Z,19.80
2022-08-21T08:50:22.563Z,19.80
2022-08-21T08:52:53.724Z,19.90
2022-08-21T08:55:36.493Z,19.90
2022-08-21T08:58:03.983Z,19.80
2022-08-21T09:00:31.962Z,19.90
2022-08-21T09:03:01.239Z,20.00
2022-08-21T09:06:02.208Z,20.10
2022-08-21T09:09:10.044Z,20.20
2022-08-21T09:11:47.070Z,20.30
2022-08-21T09:14:42.300Z,20.30
2022-08-21T09:17:41.746Z,20.50
2022-08-21T09:20:34.219Z,20.60
2022-08-21T09:23:29.475Z,20.80
2022-08-21T09:26:17.264Z,21.00
2022-08-21T09:28:50.790Z,21.10
2022-08-21T09:31:23.332Z,21.10
2022-08-21T09:33:51.255Z,21.10
2022-08-21T09:36:33.094Z,21.10
2022-08-21T09:39:00.340Z,21.20
2022-08-21T09:41:29.551Z,21.40
2022-08-21T09:44:03.544Z,21.40
2022-08-21T09:46:31.146Z,21.40
2022-08-21T09:49:02.513Z,21.60
2022-08-21T09:51:37.032Z,21.70
2022-08-21T09:54:09.918Z,21.80
2022-08-21T09:56:56.972Z,22.00
2022-08-21T09:59:36.450Z,22.00
2022-08-21T10:02:23.266Z,22.00
2022-08-21T10:05:02.043Z,22.10
2022-08-21T10:07:31.936Z,22.40
2022-08-21T10:10:22.701Z,22.50
2022-08-21T10:13:03.189Z,22.60
2022-08-21T10:15:57.666Z,22.90
2022-08-21T10:18:40.737Z,23.00
2022-08-21T10:21:45.447Z,23.30
2022-08-21T10:24:33.318Z,23.30
2022-08-21T10:27:19.362Z,23.50
2022-08-21T10:30:01.029Z,23.50
2022-08-21T10:33:04.997Z,23.60
2022-08-21T10:35:41.368Z,23.60
2022-08-21T10:38:52.497Z,23.40
2022-08-21T10:41:28.196Z,23.30
2022-08-21T10:44:19.598Z,23.20
2022-08-21T10:47:07.669Z,23.10
2022-08-21T10:50:10.175Z,23.10
2022-08-21T10:52:47.398Z,23.20
2022-08-21T10:55:20.719Z,23.20
2022-08-21T10:58:07.729Z,23.30
2022-08-21T11:00:56.517Z,23.60
2022-08-21T11:03:40.875Z,23.80
2022-08-21T11:06:35.314Z,24.00
2022-08-21T11:09:09.846Z,24.10
2022-08-21T11:11:59.433Z,24.20
2022-08-21T11:14:56.029Z,24.10
2022-08-21T11:17:31.871Z,24.10
2022-08-21T11:20:22.934Z,24.30
2022-08-21T11:23:00.026Z,24.00
2022-08-21T11:25:39.154Z,23.80
2022-08-21T11:28:14.972Z,23.70
2022-08-21T11:31:04.205Z,23.70
2022-08-21T11:33:53.957Z,23.60
2022-08-21T11:36:30.686Z,23.70
2022-08-21T11:39:00.979Z,23.60
2022-08-21T11:41:51.046Z,23.60
2022-08-21T11:44:34.005Z,23.80
2022-08-21T11:47:04.538Z,23.70
2022-08-21T11:49:50.664Z,23.80
2022-08-21T11:52:29.738Z,23.70
2022-08-21T11:55:03.607Z,23.80
2022-08-21T11:57:32.363Z,23.90
2022-08-21T12:00:12.142Z,24.00
2022-08-21T12:02:52.352Z,24.10
2022-08-21T12:05:43.753Z,24.20
2022-08-21T12:08:11.109Z,24.40
2022-08-21T12:10:49.275Z,24.50
2022-08-21T12:13:40.667Z,24.50
2022-08-21T12:16:12.286Z,24.40
2022-08-21T12:18:41.355Z,24.40
2022-08-21T12:21:22.435Z,24.30
2022-08-21T12:24:03.611Z,24.40
2022-08-21T12:26:33.579Z,24.60
2022-08-21T12:29:21.927Z,24.60
2022-08-21T12:31:51.344Z,24.60
2022-08-21T12:34:18.524Z,24.40
2022-08-21T12:36:49.446Z,24.40
2022-08-21T12:39:20.854Z,24.60
2022-08-21T12:41:52.418Z,24.60
2022-08-21T12:44:31.725Z,24.90
2022-08-21T12:47:04.304Z,25.00
2022-08-21T12:49:41.673Z,25.30
2022-08-21T12:52:23.906Z,25.20
2022-08-21T12:54:51.619Z,25.30
2022-08-21T12:57:23.078Z,25.30
2022-08-21T12:59:55.856Z,25.10
2022-08-21T13:02:29.402Z,24.90
2022-08-21T13:04:59.389Z,24.90
2022-08-21T13:07:34.586Z,25.00
2022-08-21T13:10:18.081Z,25.20
2022-08-21T13:12:46.224Z,25.40
2022-08-21T13:15:13.399Z,25.50
2022-08-21T13:17:44.425Z,25.50
2022-08-21T13:20:23.616Z,25.70
2022-08-21T13:22:56.758Z,25.90
2022-08-21T13:25:30.616Z,26.00
2022-08-21T13:28:25.572Z,25.90
2022-08-21T13:30:59.997Z,26.10
2022-08-21T13:33:34.827Z,26.20
2022-08-21T13:36:19.634Z,26.20
2022-08-21T13:38:53.616Z,26.10
2022-08-21T13:41:36.685Z,26.10
2022-08-21T13:44:36.120Z,26.30
2022-08-21T13:47:09.065Z,26.50
2022-08-21T13:49:49.621Z,26.30
2022-08-21T13:52:28.520Z,26.00
2022-08-21T13:55:01.994Z,25.80
2022-08-21T13:57:34.618Z,25.80
2022-08-21T14:00:28.110Z,25.70
2022-08-21T14:03:10.958Z,25.30
2022-08-21T14:05:39.586Z,25.30
2022-08-21T14:08:09.611Z,25.30
2022-08-21T14:10:38.652Z,25.20
2022-08-21T14:13:07.499Z,25.20
2022-08-21T14:15:35.447Z,25.30
2022-08-21T14:18:17.056Z,25.30
2022-08-21T14:20:44.453Z,25.50
2022-08-21T14:23:12.668Z,25.40
2022-08-21T14:25:44.995Z,25.20
2022-08-21T14:28:28.296Z,25.20
2022-08-21T14:30:57.329Z,25.20
2022-08-21T14:33:34.289Z,25.10
2022-08-21T14:36:03.246Z,25.20
2022-08-21T14:38:30.796Z,25.30
2022-08-21T14:41:00.062Z,25.40
2022-08-21T14:43:28.120Z,25.40
2022-08-21T14:45:56.059Z,25.40
2022-08-21T14:48:23.249Z,25.60
2022-08-21T14:50:50.639Z,25.70
2022-08-21T14:53:18.060Z,25.70
2022-08-21T14:56:03.648Z,25.70
2022-08-21T14:58:30.941Z,25.60
2022-08-21T15:00:59.165Z,25.50
2022-08-21T15:03:26.926Z,25.60
2022-08-21T15:05:56.151Z,25.70
2022-08-21T15:08:23.379Z,25.80
2022-08-21T15:11:10.668Z,25.70
2022-08-21T15:13:37.889Z,25.70
2022-08-21T15:16:05.164Z,25.70
2022-08-21T15:18:32.347Z,25.70
2022-08-21T15:20:59.601Z,25.70
2022-08-21T15:23:27.092Z,25.70
2022-08-21T15:25:56.973Z,25.80
2022-08-21T15:28:27.044Z,25.80
2022-08-21T15:31:00.643Z,25.90
2022-08-21T15:33:27.904Z,25.80
2022-08-21T15:35:55.019Z,25.90
2022-08-21T15:38:22.310Z,26.00
2022-08-21T15:40:52.341Z,26.10
2022-08-21T15:43:30.333Z,25.90
2022-08-21T15:45:59.151Z,26.10
2022-08-21T15:48:26.459Z,26.20
2022-08-21T15:50:53.986Z,26.30
2022-08-21T15:53:24.531Z,26.30
2022-08-21T15:55:51.699Z,26.40
2022-08-21T15:58:21.250Z,26.40
2022-08-21T16:00:48.675Z,26.40
2022-08-21T16:03:17.794Z,26.30
2022-08-21T16:05:45.828Z,26.30
2022-08-21T16:08:13.179Z,26.10
2022-08-21T16:10:40.389Z,26.00
2022-08-21T16:13:13.122Z,25.90
2022-08-21T16:15:40.845Z,26.20
2022-08-21T16:18:07.985Z,26.10
2022-08-21T16:20:35.232Z,25.80
2022-08-21T16:23:02.565Z,25.70
2022-08-21T16:25:30.088Z,25.60
2022-08-21T16:28:01.620Z,25.40
2022-08-21T16:30:29.689Z,25.30
2022-08-21T16:32:56.943Z,25.30
2022-08-21T16:35:25.813Z,25.10
2022-08-21T16:37:53.568Z,25.00
2022-08-21T16:40:23.382Z,24.80
2022-08-21T16:42:50.708Z,24.70
2022-08-21T16:45:18.810Z,24.70
2022-08-21T16:47:46.070Z,24.70
2022-08-21T16:50:17.925Z,24.60
2022-08-21T16:52:45.179Z,24.70
2022-08-21T16:55:12.221Z,24.80
2022-08-21T16:57:39.630Z,25.20
2022-08-21T17:00:14.472Z,27.10
2022-08-21T17:02:48.106Z,28.80
2022-08-21T17:05:16.469Z,29.90
2022-08-21T17:07:44.363Z,30.60
2022-08-21T17:10:13.073Z,31.20
2022-08-21T17:12:41.487Z,30.80
2022-08-21T17:15:21.356Z,29.20
2022-08-21T17:17:49.084Z,28.10
2022-08-21T17:20:16.387Z,27.80
2022-08-21T17:22:43.636Z,27.30
2022-08-21T17:25:10.974Z,26.50
2022-08-21T17:27:39.743Z,26.00
2022-08-21T17:30:07.864Z,25.80
2022-08-21T17:32:35.287Z,25.60
2022-08-21T17:35:02.624Z,25.50
2022-08-21T17:37:30.541Z,25.30
2022-08-21T17:40:00.891Z,25.10
2022-08-21T17:42:30.161Z,24.90
2022-08-21T17:44:57.869Z,24.80
2022-08-21T17:47:25.931Z,24.70
2022-08-21T17:49:53.639Z,24.50
2022-08-21T17:52:21.552Z,24.40
2022-08-21T17:54:48.842Z,24.20
2022-08-21T17:57:19.721Z,24.20
2022-08-21T17:59:51.018Z,24.00
2022-08-21T18:02:20.419Z,23.80
2022-08-21T18:04:50.482Z,23.60
2022-08-21T18:07:31.749Z,23.50
2022-08-21T18:10:03.636Z,23.30
2022-08-21T18:12:31.033Z,23.10
2022-08-21T18:14:58.113Z,23.10
2022-08-21T18:17:25.606Z,23.00
2022-08-21T18:19:53.082Z,22.90
2022-08-21T18:22:20.358Z,22.80
2022-08-21T18:24:47.455Z,22.70
2022-08-21T18:27:15.636Z,22.60
2022-08-21T18:29:43.853Z,22.50
2022-08-21T18:32:31.144Z,22.40
2022-08-21T18:35:00.767Z,22.30
2022-08-21T18:37:30.989Z,22.20
2022-08-21T18:39:59.186Z,22.10
2022-08-21T18:42:28.400Z,22.00
2022-08-21T18:44:57.880Z,22.00
2022-08-21T18:47:37.393Z,21.90
2022-08-21T18:50:12.051Z,21.80
2022-08-21T18:52:41.781Z,21.70
2022-08-21T18:55:20.556Z,21.60
2022-08-21T18:57:47.816Z,21.50
2022-08-21T19:00:21.869Z,21.50
2022-08-21T19:02:49.480Z,21.40
2022-08-21T19:05:17.595Z,21.40
2022-08-21T19:07:44.963Z,21.20
2022-08-21T19:10:28.033Z,21.20
2022-08-21T19:13:00.844Z,21.10
2022-08-21T19:15:28.527Z,21.00
2022-08-21T19:17:56.964Z,21.00
2022-08-21T19:20:36.906Z,20.90
2022-08-21T19:23:05.534Z,20.90
2022-08-21T19:25:34.465Z,20.80
2022-08-21T19:28:03.834Z,20.70
2022-08-21T19:30:42.466Z,20.70
2022-08-21T19:33:27.515Z,20.60
2022-08-21T19:35:54.894Z,20.50
2022-08-21T19:38:22.540Z,20.50
2022-08-21T19:40:49.866Z,20.40
2022-08-21T19:43:17.023Z,20.40
2022-08-21T19:45:52.515Z,20.30
2022-08-21T19:48:20.591Z,20.30
2022-08-21T19:50:47.940Z,20.20
2022-08-21T19:53:15.215Z,20.20
2022-08-21T19:55:46.574Z,20.10
2022-08-21T19:58:38.869Z,20.10
2022-08-21T20:01:11.373Z,20.10
2022-08-21T20:03:44.305Z,20.00
2022-08-21T20:06:12.025Z,19.90
2022-08-21T20:08:39.084Z,19.80
2022-08-21T20:11:06.556Z,19.80
2022-08-21T20:13:34.025Z,19.80
2022-08-21T20:16:11.841Z,19.70
2022-08-21T20:18:40.568Z,19.60
2022-08-21T20:21:10.929Z,19.60
2022-08-21T20:23:48.829Z,19.50
2022-08-21T20:26:26.615Z,19.50
2022-08-21T20:28:54.703Z,19.40
2022-08-21T20:31:22.907Z,19.40
2022-08-21T20:33:50.566Z,19.30
2022-08-21T20:36:19.041Z,19.20
2022-08-21T20:38:48.144Z,19.20
2022-08-21T20:44:05.701Z,19.10
2022-08-21T20:46:33.182Z,19.10
2022-08-21T20:49:00.941Z,19.00
2022-08-21T20:51:32.397Z,19.00
2022-08-21T20:54:21.799Z,19.00
2022-08-21T20:57:06.105Z,18.90
2022-08-21T20:59:55.819Z,18.90
2022-08-21T21:02:23.442Z,18.80
2022-08-21T21:05:13.011Z,18.80
2022-08-21T21:07:59.604Z,18.80
2022-08-21T21:10:41.764Z,18.80
2022-08-21T21:13:57.811Z,18.80
2022-08-21T21:16:31.340Z,18.70
2022-08-21T21:19:20.937Z,18.60
2022-08-21T21:21:52.225Z,18.60
2022-08-21T21:24:22.963Z,18.50
2022-08-21T21:27:00.132Z,18.50
2022-08-21T21:29:35.120Z,18.50
2022-08-21T21:32:04.401Z,18.40
2022-08-21T21:34:35.103Z,18.40
2022-08-21T21:37:39.429Z,18.40
2022-08-21T21:40:33.157Z,18.40
2022-08-21T21:43:07.632Z,18.40
2022-08-21T21:46:07.004Z,18.30
2022-08-21T21:49:00.804Z,18.30
2022-08-21T21:51:41.972Z,18.30
2022-08-21T21:54:38.739Z,18.20
2022-08-21T21:57:21.353Z,18.20
2022-08-21T21:59:53.661Z,18.20
2022-08-21T22:02:33.098Z,18.10
2022-08-21T22:08:48.797Z,18.00
2022-08-21T22:15:46.421Z,17.90
2022-08-21T22:18:17.440Z,17.80
2022-08-21T22:20:53.140Z,17.80
2022-08-21T22:23:28.585Z,17.70
2022-08-21T22:25:59.653Z,17.70
2022-08-21T22:28:27.167Z,17.70
2022-08-21T22:31:18.009Z,17.60
2022-08-21T22:34:04.374Z,17.50
2022-08-21T22:36:34.450Z,17.50
2022-08-21T22:39:03.814Z,17.40
2022-08-21T22:41:31.669Z,17.40
2022-08-21T22:44:02.099Z,17.30
2022-08-21T22:46:42.874Z,17.30
2022-08-21T22:49:19.099Z,17.30
2022-08-21T22:51:56.085Z,17.20
2022-08-21T22:54:36.623Z,17.20
2022-08-21T22:57:21.546Z,17.20
2022-08-21T23:00:16.952Z,17.20
2022-08-21T23:02:57.751Z,17.20
2022-08-21T23:05:32.803Z,17.10
2022-08-21T23:08:13.922Z,17.10
2022-08-21T23:10:41.346Z,17.00
2022-08-21T23:13:13.218Z,17.00
2022-08-21T23:16:05.664Z,16.90
2022-08-21T23:19:11.605Z,16.90
2022-08-21T23:21:46.698Z,16.90
2022-08-21T23:24:38.461Z,16.90
2022-08-21T23:27:42.174Z,16.90
2022-08-21T23:30:12.530Z,16.80
2022-08-21T23:33:00.248Z,16.70
2022-08-21T23:36:11.359Z,16.70
2022-08-21T23:38:53.196Z,16.70
2022-08-21T23:41:34.473Z,16.70
2022-08-21T23:44:31.633Z,16.70
2022-08-21T23:47:21.052Z,16.60
2022-08-21T23:49:48.266Z,16.60
2022-08-21T23:52:33.345Z,16.50
2022-08-21T23:55:26.862Z,16.50
2022-08-21T23:57:54.637Z,16.50
